createdAt,value
2018-07-25T00:01:18.194Z,65.10
2018-07-25T00:03:47.628Z,65.20
2018-07-25T00:06:17.097Z,65.40
2018-07-25T00:08:46.557Z,65.10
2018-07-25T00:11:16.087Z,65.50
2018-07-25T00:13:45.590Z,65.70
2018-07-25T00:16:15.061Z,66.00
2018-07-25T00:18:44.505Z,66.50
2018-07-25T00:21:13.908Z,67.60
2018-07-25T00:23:43.390Z,67.70
2018-07-25T00:26:12.851Z,67.20
2018-07-25T00:28:42.278Z,67.50
2018-07-25T00:31:11.728Z,67.40
2018-07-25T00:33:41.236Z,67.30
2018-07-25T00:36:10.706Z,67.70
2018-07-25T00:38:40.150Z,67.30
2018-07-25T00:41:09.624Z,66.80
2018-07-25T00:43:39.072Z,67.40
2018-07-25T00:46:08.588Z,66.20
2018-07-25T00:48:38.022Z,66.40
2018-07-25T00:51:07.431Z,66.30
2018-07-25T00:53:36.814Z,67.90
2018-07-25T00:56:06.230Z,68.30
2018-07-25T00:58:35.658Z,68.10
2018-07-25T01:01:05.125Z,68.20
2018-07-25T01:03:34.545Z,68.30
2018-07-25T01:08:33.123Z,69.60
2018-07-25T01:11:02.550Z,69.00
2018-07-25T01:13:31.968Z,68.60
2018-07-25T01:16:01.413Z,68.00
2018-07-25T01:18:30.830Z,68.80
2018-07-25T01:21:01.069Z,69.50
2018-07-25T01:23:30.506Z,69.20
2018-07-25T01:25:59.872Z,69.30
2018-07-25T01:28:29.269Z,69.50
2018-07-25T01:30:58.835Z,69.50
2018-07-25T01:33:28.231Z,69.20
2018-07-25T01:35:57.625Z,69.10
2018-07-25T01:38:27.133Z,69.20
2018-07-25T01:40:56.603Z,69.00
2018-07-25T01:43:26.003Z,69.10
2018-07-25T01:45:55.446Z,68.70
2018-07-25T01:48:24.897Z,68.70
2018-07-25T01:50:54.373Z,69.10
2018-07-25T01:53:23.868Z,69.60
2018-07-25T01:55:53.290Z,69.00
2018-07-25T01:58:22.787Z,68.80
2018-07-25T02:00:52.218Z,69.10
2018-07-25T02:03:21.607Z,69.10
2018-07-25T02:05:51.055Z,69.20
2018-07-25T02:08:20.620Z,69.00
2018-07-25T02:10:50.126Z,69.30
2018-07-25T02:13:19.604Z,69.20
2018-07-25T02:15:49.056Z,69.20
2018-07-25T02:18:18.478Z,69.40
2018-07-25T02:20:47.932Z,69.20
2018-07-25T02:23:17.407Z,69.30
2018-07-25T02:25:46.903Z,69.30
2018-07-25T02:28:16.383Z,69.50
2018-07-25T02:30:45.823Z,69.00
2018-07-25T02:33:15.233Z,69.60
2018-07-25T02:35:44.670Z,69.60
2018-07-25T02:38:14.090Z,69.70
2018-07-25T02:40:43.554Z,70.00
2018-07-25T02:43:13.011Z,70.50
2018-07-25T02:45:46.570Z,70.10
2018-07-25T02:48:16.833Z,69.80
2018-07-25T02:50:46.332Z,70.10
2018-07-25T02:53:15.787Z,70.30
2018-07-25T02:55:45.254Z,70.60
2018-07-25T02:58:14.722Z,70.80
2018-07-25T03:00:44.601Z,70.40
2018-07-25T03:03:14.246Z,70.80
2018-07-25T03:05:43.686Z,70.90
2018-07-25T03:08:17.576Z,71.00
2018-07-25T03:10:53.721Z,71.20
2018-07-25T03:13:30.872Z,71.10
2018-07-25T03:16:07.623Z,69.60
2018-07-25T03:18:41.472Z,70.30
2018-07-25T03:21:12.693Z,69.90
2018-07-25T03:23:43.783Z,69.90
2018-07-25T03:26:14.300Z,69.80
2018-07-25T03:28:57.307Z,69.60
2018-07-25T03:31:38.773Z,69.70
2018-07-25T03:34:09.467Z,69.30
2018-07-25T03:36:40.429Z,69.30
2018-07-25T03:39:18.774Z,69.10
2018-07-25T03:41:49.791Z,68.80
2018-07-25T03:44:20.151Z,69.30
2018-07-25T03:46:56.117Z,68.90
2018-07-25T03:49:41.835Z,68.80
2018-07-25T03:52:12.782Z,68.90
2018-07-25T03:54:46.680Z,69.30
2018-07-25T03:57:17.117Z,69.60
2018-07-25T03:59:47.704Z,69.20
2018-07-25T04:02:18.746Z,69.20
2018-07-25T04:04:49.624Z,69.30
2018-07-25T04:07:20.486Z,69.50
2018-07-25T04:09:50.186Z,69.60
2018-07-25T04:12:19.609Z,69.00
2018-07-25T04:17:17.958Z,69.20
2018-07-25T04:19:47.416Z,69.20
2018-07-25T04:22:16.938Z,69.50
2018-07-25T04:24:46.424Z,69.10
2018-07-25T04:27:15.889Z,68.80
2018-07-25T04:29:45.349Z,68.80
2018-07-25T04:32:14.999Z,69.00
2018-07-25T04:34:44.439Z,69.10
2018-07-25T04:37:13.978Z,68.70
2018-07-25T04:39:43.660Z,69.10
2018-07-25T04:42:13.127Z,69.60
2018-07-25T04:44:42.552Z,69.50
2018-07-25T04:47:12.241Z,68.60
2018-07-25T04:49:41.666Z,68.50
2018-07-25T04:54:40.022Z,68.60
2018-07-25T04:57:09.473Z,68.80
2018-07-25T04:59:38.856Z,69.20
2018-07-25T05:02:08.431Z,69.70
2018-07-25T05:04:38.094Z,69.40
2018-07-25T05:07:07.623Z,70.20
2018-07-25T05:09:37.102Z,70.10
2018-07-25T05:12:06.690Z,70.50
2018-07-25T05:14:36.202Z,70.00
2018-07-25T05:17:05.794Z,70.10
2018-07-25T05:19:35.348Z,70.30
2018-07-25T05:22:05.978Z,70.20
2018-07-25T05:24:44.769Z,69.50
2018-07-25T05:27:19.614Z,69.70
2018-07-25T05:30:05.163Z,69.20
2018-07-25T05:32:35.627Z,69.30
2018-07-25T05:35:05.378Z,69.00
2018-07-25T05:37:34.874Z,68.70
2018-07-25T05:40:04.501Z,68.90
2018-07-25T05:42:33.926Z,68.90
2018-07-25T05:45:03.390Z,68.60
2018-07-25T05:47:32.884Z,67.90
2018-07-25T05:52:31.602Z,67.10
2018-07-25T05:55:03.351Z,67.40
2018-07-25T05:57:34.555Z,67.50
2018-07-25T06:00:06.405Z,67.00
2018-07-25T06:02:39.739Z,66.60
2018-07-25T06:05:10.037Z,66.30
2018-07-25T06:07:41.898Z,65.70
2018-07-25T06:10:24.718Z,65.30
2018-07-25T06:13:07.327Z,65.70
2018-07-25T06:15:47.959Z,65.40
2018-07-25T06:18:19.530Z,64.60
2018-07-25T06:20:50.088Z,65.10
2018-07-25T06:23:31.630Z,64.50
2018-07-25T06:28:35.776Z,65.10
2018-07-25T06:31:05.250Z,64.40
2018-07-25T06:33:34.654Z,64.50
2018-07-25T06:36:04.145Z,65.50
2018-07-25T06:38:33.597Z,65.30
2018-07-25T06:41:03.007Z,66.60
2018-07-25T06:43:32.425Z,66.80
2018-07-25T06:46:01.918Z,67.10
2018-07-25T06:48:31.333Z,67.50
2018-07-25T06:51:07.526Z,68.10
2018-07-25T06:56:06.021Z,67.70
2018-07-25T06:58:35.559Z,67.40
2018-07-25T07:01:05.020Z,66.90
2018-07-25T07:03:34.497Z,67.00
2018-07-25T07:06:03.996Z,68.40
2018-07-25T07:08:33.350Z,68.50
2018-07-25T07:11:02.853Z,70.50
2018-07-25T07:13:32.325Z,70.40
2018-07-25T07:16:01.792Z,69.30
2018-07-25T07:18:31.259Z,69.40
2018-07-25T07:21:00.775Z,69.10
2018-07-25T07:23:30.251Z,69.30
2018-07-25T07:25:59.646Z,68.50
2018-07-25T07:28:29.140Z,67.90
2018-07-25T07:30:58.556Z,68.40
2018-07-25T07:33:27.954Z,68.70
2018-07-25T07:35:57.401Z,67.90
2018-07-25T07:38:26.780Z,66.50
2018-07-25T07:40:56.513Z,67.20
2018-07-25T07:43:25.972Z,68.60
2018-07-25T07:45:55.430Z,66.00
2018-07-25T07:48:24.878Z,64.50
2018-07-25T07:50:54.370Z,65.10
2018-07-25T07:53:23.817Z,66.50
2018-07-25T07:55:53.298Z,63.90
2018-07-25T07:58:22.772Z,64.80
2018-07-25T08:00:52.703Z,64.90
2018-07-25T08:03:23.397Z,64.10
2018-07-25T08:05:52.895Z,64.90
2018-07-25T08:08:22.327Z,62.90
2018-07-25T08:10:51.802Z,62.90
2018-07-25T08:13:21.284Z,63.90
2018-07-25T08:15:50.928Z,61.10
2018-07-25T08:18:22.381Z,60.90
2018-07-25T08:20:51.815Z,63.00
2018-07-25T08:23:21.243Z,61.50
2018-07-25T08:25:50.773Z,60.70
2018-07-25T08:28:20.253Z,61.00
2018-07-25T08:30:49.734Z,61.80
2018-07-25T08:33:19.203Z,61.60
2018-07-25T08:35:48.659Z,60.60
2018-07-25T08:38:23.316Z,60.60
2018-07-25T08:40:52.778Z,59.50
2018-07-25T08:43:22.177Z,60.20
2018-07-25T08:45:51.714Z,59.60
2018-07-25T08:48:21.181Z,58.90
2018-07-25T08:50:50.652Z,60.60
2018-07-25T08:53:20.100Z,60.40
2018-07-25T08:55:50.159Z,59.20
2018-07-25T08:58:19.746Z,58.30
2018-07-25T09:00:49.601Z,58.70
2018-07-25T09:05:47.891Z,59.00
2018-07-25T09:08:17.361Z,59.00
2018-07-25T09:10:46.818Z,56.70
2018-07-25T09:13:16.350Z,58.10
2018-07-25T09:15:45.946Z,57.90
2018-07-25T09:18:15.397Z,60.10
2018-07-25T09:20:44.871Z,59.10
2018-07-25T09:23:14.331Z,58.20
2018-07-25T09:25:43.768Z,60.80
2018-07-25T09:28:13.256Z,58.70
2018-07-25T09:30:42.868Z,59.30
2018-07-25T09:33:12.368Z,60.10
2018-07-25T09:35:41.829Z,57.10
2018-07-25T09:38:11.345Z,57.90
2018-07-25T09:40:40.762Z,58.20
2018-07-25T09:43:10.212Z,59.00
2018-07-25T09:45:39.777Z,58.70
2018-07-25T09:48:09.223Z,57.60
2018-07-25T09:50:38.656Z,59.90
2018-07-25T09:53:08.219Z,57.40
2018-07-25T09:55:37.767Z,58.30
2018-07-25T09:58:07.441Z,56.20
2018-07-25T10:00:42.237Z,53.70
2018-07-25T10:03:11.706Z,57.10
2018-07-25T10:05:41.262Z,57.50
2018-07-25T10:08:10.736Z,59.20
2018-07-25T10:10:40.241Z,55.40
2018-07-25T10:13:09.695Z,57.50
2018-07-25T10:15:39.145Z,55.60
2018-07-25T10:18:08.651Z,57.90
2018-07-25T10:20:38.299Z,56.20
2018-07-25T10:23:07.731Z,56.10
2018-07-25T10:25:37.280Z,57.30
2018-07-25T10:28:07.113Z,57.50
2018-07-25T10:30:36.614Z,54.40
2018-07-25T10:33:06.475Z,54.40
2018-07-25T10:35:36.146Z,55.20
2018-07-25T10:38:05.662Z,57.10
2018-07-25T10:40:35.137Z,54.20
2018-07-25T10:43:04.683Z,51.40
2018-07-25T10:45:34.089Z,52.50
2018-07-25T10:48:03.573Z,56.40
2018-07-25T10:50:33.031Z,53.10
2018-07-25T10:53:02.584Z,54.20
2018-07-25T10:55:32.121Z,52.20
2018-07-25T10:58:01.568Z,51.00
2018-07-25T11:00:30.989Z,50.40
2018-07-25T11:03:00.574Z,50.10
2018-07-25T11:05:30.054Z,53.20
2018-07-25T11:07:59.549Z,54.20
2018-07-25T11:10:28.962Z,48.50
2018-07-25T11:12:58.451Z,49.20
2018-07-25T11:15:27.896Z,49.00
2018-07-25T11:17:57.479Z,52.50
2018-07-25T11:20:27.062Z,48.50
2018-07-25T11:22:56.594Z,47.00
2018-07-25T11:25:26.582Z,46.60
2018-07-25T11:27:56.065Z,47.00
2018-07-25T11:30:57.430Z,48.40
2018-07-25T11:33:28.783Z,48.00
2018-07-25T11:36:23.695Z,47.00
2018-07-25T11:39:20.867Z,48.20
2018-07-25T11:42:17.345Z,47.80
2018-07-25T11:48:18.707Z,46.20
2018-07-25T11:51:18.032Z,45.10
2018-07-25T11:54:19.867Z,44.70
2018-07-25T11:57:10.793Z,42.00
2018-07-25T12:00:15.005Z,46.30
2018-07-25T12:03:19.578Z,42.90
2018-07-25T12:06:20.848Z,43.00
2018-07-25T12:09:28.686Z,43.80
2018-07-25T12:12:34.700Z,43.10
2018-07-25T12:15:37.574Z,43.70
2018-07-25T12:18:35.312Z,45.10
2018-07-25T12:21:22.989Z,42.50
2018-07-25T12:24:15.059Z,43.30
2018-07-25T12:27:19.253Z,42.80
2018-07-25T12:30:09.222Z,44.00
2018-07-25T12:33:25.770Z,43.80
2018-07-25T12:39:33.815Z,42.80
2018-07-25T12:42:25.996Z,44.20
2018-07-25T12:45:21.726Z,44.70
2018-07-25T12:48:19.941Z,45.00
2018-07-25T12:51:22.287Z,44.10
2018-07-25T12:57:08.412Z,44.80
2018-07-25T13:00:05.433Z,44.50
2018-07-25T13:03:04.591Z,42.70
2018-07-25T13:06:05.267Z,42.70
2018-07-25T13:09:13.154Z,41.70
2018-07-25T13:12:15.263Z,42.80
2018-07-25T13:15:09.561Z,42.30
2018-07-25T13:17:55.618Z,41.40
2018-07-25T13:20:39.951Z,41.60
2018-07-25T13:23:32.854Z,43.90
2018-07-25T13:26:17.921Z,42.00
2018-07-25T13:29:01.743Z,41.10
2018-07-25T13:31:53.878Z,42.80
2018-07-25T13:34:38.724Z,43.80
2018-07-25T13:37:28.114Z,44.10
2018-07-25T13:40:20.847Z,43.70
2018-07-25T13:42:57.818Z,43.60
2018-07-25T13:45:36.886Z,43.90
2018-07-25T13:48:14.206Z,43.60
2018-07-25T13:50:52.055Z,43.60
2018-07-25T13:53:33.171Z,43.40
2018-07-25T13:56:12.433Z,44.60
2018-07-25T13:58:50.395Z,43.10
2018-07-25T14:01:27.169Z,43.70
2018-07-25T14:04:04.403Z,42.50
2018-07-25T14:06:41.740Z,41.80
2018-07-25T14:09:20.008Z,42.00
2018-07-25T14:12:04.253Z,41.70
2018-07-25T14:14:44.203Z,43.10
2018-07-25T14:17:27.059Z,41.70
2018-07-25T14:20:08.224Z,40.10
2018-07-25T14:22:46.089Z,41.40
2018-07-25T14:25:24.075Z,40.90
2018-07-25T14:28:01.954Z,40.60
2018-07-25T14:30:39.812Z,40.50
2018-07-25T14:33:49.639Z,40.70
2018-07-25T14:36:46.296Z,41.10
2018-07-25T14:39:33.506Z,40.80
2018-07-25T14:48:31.442Z,42.90
2018-07-25T14:53:54.558Z,42.10
2018-07-25T14:56:48.869Z,41.80
2018-07-25T14:59:31.475Z,41.40
2018-07-25T15:02:09.363Z,40.80
2018-07-25T15:07:59.632Z,40.10
2018-07-25T15:10:29.125Z,38.50
2018-07-25T15:12:59.833Z,38.10
2018-07-25T15:15:29.394Z,37.60
2018-07-25T15:17:58.927Z,38.50
2018-07-25T15:20:28.494Z,39.20
2018-07-25T15:22:58.050Z,37.90
2018-07-25T15:25:27.541Z,38.80
2018-07-25T15:27:57.013Z,38.50
2018-07-25T15:30:26.446Z,39.20
2018-07-25T15:32:55.824Z,39.30
2018-07-25T15:35:25.424Z,39.00
2018-07-25T15:37:55.103Z,39.90
2018-07-25T15:40:24.797Z,41.20
2018-07-25T15:42:54.547Z,40.90
2018-07-25T15:45:24.165Z,41.20
2018-07-25T15:47:53.774Z,39.80
2018-07-25T15:52:52.256Z,39.10
2018-07-25T15:55:21.735Z,38.50
2018-07-25T15:57:51.237Z,38.70
2018-07-25T16:00:20.794Z,38.50
2018-07-25T16:02:50.368Z,38.40
2018-07-25T16:05:19.953Z,38.50
2018-07-25T16:07:49.431Z,38.20
2018-07-25T16:11:03.503Z,38.40
2018-07-25T16:13:55.277Z,37.40
2018-07-25T16:16:24.985Z,39.10
2018-07-25T16:18:54.591Z,39.20
2018-07-25T16:21:24.237Z,39.00
2018-07-25T16:23:53.863Z,38.60
2018-07-25T16:26:23.420Z,38.30
2018-07-25T16:28:52.920Z,38.10
2018-07-25T16:31:22.533Z,38.50
2018-07-25T16:33:52.148Z,39.00
2018-07-25T16:36:21.740Z,38.00
2018-07-25T16:38:51.379Z,37.40
2018-07-25T16:41:26.890Z,37.80
2018-07-25T16:44:02.932Z,37.60
2018-07-25T16:46:38.780Z,38.00
2018-07-25T16:49:14.381Z,37.90
2018-07-25T16:51:50.031Z,38.50
2018-07-25T16:54:25.437Z,38.30
2018-07-25T16:56:59.750Z,39.20
2018-07-25T16:59:34.367Z,38.50
2018-07-25T17:02:09.639Z,38.50
2018-07-25T17:04:46.233Z,38.80
2018-07-25T17:07:21.108Z,38.30
2018-07-25T17:10:03.056Z,38.70
2018-07-25T17:12:36.498Z,38.60
2018-07-25T17:15:10.967Z,39.70
2018-07-25T17:17:46.291Z,40.10
2018-07-25T17:20:21.859Z,40.30
2018-07-25T17:22:57.965Z,40.30
2018-07-25T17:28:07.222Z,41.00
2018-07-25T17:30:42.847Z,41.20
2018-07-25T17:33:19.190Z,41.20
2018-07-25T17:35:54.710Z,41.30
2018-07-25T17:38:31.032Z,41.80
2018-07-25T17:41:13.790Z,42.90
2018-07-25T17:43:55.137Z,42.50
2018-07-25T17:46:30.313Z,42.20
2018-07-25T17:49:05.322Z,41.50
2018-07-25T17:51:40.942Z,41.90
2018-07-25T17:54:11.026Z,42.00
2018-07-25T17:56:42.864Z,41.70
2018-07-25T17:59:14.153Z,43.20
2018-07-25T18:01:45.235Z,44.70
2018-07-25T18:04:21.780Z,45.30
2018-07-25T18:06:51.336Z,45.90
2018-07-25T18:09:21.452Z,45.90
2018-07-25T18:11:51.072Z,46.20
2018-07-25T18:14:20.984Z,46.80
2018-07-25T18:17:36.203Z,46.90
2018-07-25T18:23:59.266Z,47.50
2018-07-25T18:27:13.443Z,48.10
2018-07-25T18:30:30.776Z,48.40
2018-07-25T18:33:48.818Z,48.60
2018-07-25T18:36:27.313Z,49.00
2018-07-25T18:38:57.459Z,49.30
2018-07-25T18:41:42.447Z,49.70
2018-07-25T18:44:12.518Z,49.30
2018-07-25T18:46:44.973Z,49.80
2018-07-25T18:49:16.007Z,50.10
2018-07-25T18:51:46.122Z,50.20
2018-07-25T18:54:17.887Z,50.90
2018-07-25T18:56:47.985Z,51.00
2018-07-25T18:59:18.180Z,52.80
2018-07-25T19:01:48.389Z,53.10
2018-07-25T19:04:18.501Z,52.60
2018-07-25T19:06:48.735Z,52.40
2018-07-25T19:09:18.852Z,52.80
2018-07-25T19:11:48.968Z,53.40
2018-07-25T19:14:24.027Z,53.80
2018-07-25T19:16:54.323Z,54.50
2018-07-25T19:19:24.603Z,54.60
2018-07-25T19:21:54.897Z,54.50
2018-07-25T19:24:25.159Z,54.90
2018-07-25T19:26:55.479Z,55.00
2018-07-25T19:29:25.627Z,54.70
2018-07-25T19:31:55.882Z,54.80
2018-07-25T19:34:26.937Z,55.00
2018-07-25T19:36:57.252Z,55.80
2018-07-25T19:39:31.438Z,55.90
2018-07-25T19:42:01.598Z,56.70
2018-07-25T19:44:31.750Z,57.00
2018-07-25T19:47:01.995Z,57.10
2018-07-25T19:49:32.325Z,57.40
2018-07-25T19:52:02.955Z,57.50
2018-07-25T19:54:33.170Z,58.50
2018-07-25T19:57:03.529Z,58.20
2018-07-25T19:59:33.789Z,57.60
2018-07-25T20:02:04.167Z,58.50
2018-07-25T20:04:34.410Z,57.00
2018-07-25T20:07:04.615Z,57.00
2018-07-25T20:09:34.869Z,57.20
2018-07-25T20:12:05.283Z,57.20
2018-07-25T20:14:40.328Z,56.90
2018-07-25T20:17:10.643Z,57.20
2018-07-25T20:19:40.908Z,56.20
2018-07-25T20:22:11.242Z,57.00
2018-07-25T20:24:41.510Z,57.30
2018-07-25T20:27:11.823Z,57.30
2018-07-25T20:29:42.053Z,56.10
2018-07-25T20:32:12.294Z,57.00
2018-07-25T20:34:42.549Z,57.00
2018-07-25T20:37:13.377Z,56.60
2018-07-25T20:39:43.544Z,56.70
2018-07-25T20:42:13.782Z,56.50
2018-07-25T20:44:43.996Z,56.90
2018-07-25T20:47:14.251Z,57.30
2018-07-25T20:49:44.334Z,56.70
2018-07-25T20:52:14.495Z,56.50
2018-07-25T20:54:44.847Z,56.40
2018-07-25T20:57:14.905Z,56.30
2018-07-25T20:59:44.761Z,57.30
2018-07-25T21:02:14.819Z,56.90
2018-07-25T21:04:44.638Z,55.50
2018-07-25T21:07:14.150Z,55.20
2018-07-25T21:09:43.685Z,55.30
2018-07-25T21:12:13.160Z,55.60
2018-07-25T21:14:42.561Z,55.80
2018-07-25T21:17:11.979Z,55.70
2018-07-25T21:19:41.400Z,55.00
2018-07-25T21:22:10.953Z,54.90
2018-07-25T21:24:40.330Z,54.60
2018-07-25T21:27:09.737Z,54.20
2018-07-25T21:29:39.197Z,54.70
2018-07-25T21:32:08.765Z,53.60
2018-07-25T21:34:38.178Z,53.30
2018-07-25T21:37:07.600Z,53.30
2018-07-25T21:39:37.034Z,53.00
2018-07-25T21:42:06.503Z,53.40
2018-07-25T21:44:35.941Z,53.00
2018-07-25T21:47:05.540Z,54.80
2018-07-25T21:49:35.056Z,54.20
2018-07-25T21:52:04.710Z,54.80
2018-07-25T21:54:34.220Z,55.90
2018-07-25T21:57:03.667Z,54.90
2018-07-25T21:59:33.223Z,54.00
2018-07-25T22:02:02.593Z,53.70
2018-07-25T22:04:32.045Z,53.40
2018-07-25T22:07:01.620Z,53.60
2018-07-25T22:09:31.063Z,53.40
2018-07-25T22:12:00.458Z,54.00
2018-07-25T22:14:29.926Z,55.00
2018-07-25T22:16:59.459Z,56.20
2018-07-25T22:19:28.887Z,57.40
2018-07-25T22:21:58.310Z,56.00
2018-07-25T22:24:27.729Z,56.40
2018-07-25T22:26:57.138Z,57.20
2018-07-25T22:29:26.582Z,57.20
2018-07-25T22:31:56.040Z,56.20
2018-07-25T22:34:25.417Z,56.80
2018-07-25T22:36:54.952Z,57.20
2018-07-25T22:39:24.402Z,56.90
2018-07-25T22:41:53.872Z,58.60
2018-07-25T22:44:23.316Z,58.70
2018-07-25T22:46:52.764Z,58.30
2018-07-25T22:49:22.196Z,57.90
2018-07-25T22:51:51.692Z,58.90
2018-07-25T22:54:21.143Z,58.90
2018-07-25T22:56:50.568Z,59.20
2018-07-25T22:59:20.068Z,59.80
2018-07-25T23:01:49.543Z,59.90
2018-07-25T23:04:18.928Z,60.30
2018-07-25T23:06:48.398Z,60.20
2018-07-25T23:09:17.902Z,59.30
2018-07-25T23:11:47.301Z,59.30
2018-07-25T23:14:16.730Z,58.70
2018-07-25T23:16:46.176Z,58.90
2018-07-25T23:19:15.562Z,58.70
2018-07-25T23:21:45.062Z,61.70
2018-07-25T23:24:14.707Z,63.00
2018-07-25T23:26:44.119Z,64.10
2018-07-25T23:29:13.627Z,66.20
2018-07-25T23:31:43.118Z,66.90
2018-07-25T23:34:12.502Z,67.20
2018-07-25T23:36:41.935Z,68.20
2018-07-25T23:39:12.043Z,68.20
2018-07-25T23:41:41.481Z,67.40
2018-07-25T23:46:39.947Z,67.50
2018-07-25T23:49:09.401Z,67.60
2018-07-25T23:51:38.886Z,67.70
2018-07-25T23:54:08.298Z,68.30
2018-07-25T23:56:37.785Z,68.30
2018-07-25T23:59:07.254Z,68.00
